createdAt,value
2022-08-23T00:02:22.801Z,19.23
2022-08-23T00:05:03.539Z,19.24
2022-08-23T00:07:39.538Z,19.36
2022-08-23T00:10:13.740Z,19.29
2022-08-23T00:12:41.742Z,19.23
2022-08-23T00:15:11.939Z,19.45
2022-08-23T00:17:42.539Z,19.40
2022-08-23T00:20:35.140Z,19.34
2022-08-23T00:23:05.755Z,19.20
2022-08-23T00:25:32.868Z,19.27
2022-08-23T00:28:00.108Z,19.22
2022-08-23T00:30:27.682Z,19.33
2022-08-23T00:32:57.941Z,19.29
2022-08-23T00:35:27.113Z,19.32
2022-08-23T00:38:14.665Z,19.13
2022-08-23T00:40:53.124Z,19.13
2022-08-23T00:43:47.911Z,19.23
2022-08-23T00:46:51.893Z,19.36
2022-08-23T00:49:20.815Z,19.45
2022-08-23T00:52:00.797Z,19.37
2022-08-23T00:54:30.151Z,19.32
2022-08-23T00:57:00.149Z,19.29
2022-08-23T00:59:28.983Z,19.18
2022-08-23T01:01:56.221Z,19.20
2022-08-23T01:04:25.279Z,19.18
2022-08-23T01:07:13.365Z,19.27
2022-08-23T01:09:42.620Z,19.30
2022-08-23T01:12:16.384Z,19.29
2022-08-23T01:15:09.762Z,19.23
2022-08-23T01:17:48.378Z,19.03
2022-08-23T01:20:19.545Z,19.18
2022-08-23T01:23:00.396Z,19.13
2022-08-23T01:25:30.853Z,19.06
2022-08-23T01:28:00.396Z,19.36
2022-08-23T01:30:32.535Z,19.36
2022-08-23T01:33:03.895Z,19.20
2022-08-23T01:35:40.102Z,19.12
2022-08-23T01:38:09.516Z,19.03
2022-08-23T01:40:39.713Z,19.15
2022-08-23T01:43:08.106Z,19.19
2022-08-23T01:45:36.442Z,19.11
2022-08-23T01:48:05.786Z,18.98
2022-08-23T01:50:33.150Z,18.84
2022-08-23T01:53:01.876Z,18.98
2022-08-23T01:55:30.613Z,18.95
2022-08-23T01:58:01.535Z,18.98
2022-08-23T02:00:33.026Z,18.98
2022-08-23T02:03:01.007Z,18.91
2022-08-23T02:05:30.909Z,18.89
2022-08-23T02:08:18.342Z,18.94
2022-08-23T02:10:45.680Z,18.99
2022-08-23T02:13:13.785Z,18.99
2022-08-23T02:15:45.610Z,18.99
2022-08-23T02:18:13.981Z,19.06
2022-08-23T02:20:48.990Z,19.23
2022-08-23T02:23:16.843Z,19.23
2022-08-23T02:25:44.400Z,19.34
2022-08-23T02:28:12.321Z,19.05
2022-08-23T02:30:40.131Z,18.84
2022-08-23T02:33:10.059Z,18.85
2022-08-23T02:35:38.747Z,19.11
2022-08-23T02:38:08.523Z,18.87
2022-08-23T02:40:36.126Z,18.96
2022-08-23T02:43:04.498Z,19.05
2022-08-23T02:45:32.574Z,19.19
2022-08-23T02:48:00.220Z,19.03
2022-08-23T02:50:35.400Z,19.01
2022-08-23T02:53:04.360Z,19.05
2022-08-23T02:55:33.020Z,18.99
2022-08-23T02:58:00.381Z,18.87
2022-08-23T03:00:27.860Z,18.82
2022-08-23T03:02:55.255Z,18.99
2022-08-23T03:05:22.534Z,19.12
2022-08-23T03:07:49.764Z,19.20
2022-08-23T03:10:17.004Z,18.94
2022-08-23T03:12:50.887Z,18.89
2022-08-23T03:15:18.066Z,19.02
2022-08-23T03:17:45.515Z,18.95
2022-08-23T03:20:13.213Z,18.87
2022-08-23T03:22:48.337Z,18.89
2022-08-23T03:25:23.302Z,18.95
2022-08-23T03:28:06.329Z,19.02
2022-08-23T03:30:36.965Z,18.87
2022-08-23T03:33:05.000Z,18.89
2022-08-23T03:35:32.619Z,18.98
2022-08-23T03:38:00.993Z,19.03
2022-08-23T03:40:28.371Z,19.15
2022-08-23T03:42:55.789Z,18.95
2022-08-23T03:45:25.521Z,19.13
2022-08-23T03:47:52.644Z,19.37
2022-08-23T03:50:20.418Z,19.27
2022-08-23T03:52:47.728Z,19.34
2022-08-23T03:55:15.503Z,19.13
2022-08-23T03:57:45.407Z,19.22
2022-08-23T04:00:15.077Z,19.26
2022-08-23T04:02:48.134Z,19.29
2022-08-23T04:05:16.035Z,19.22
2022-08-23T04:07:58.543Z,19.36
2022-08-23T04:10:26.046Z,19.56
2022-08-23T04:12:55.461Z,19.45
2022-08-23T04:15:23.353Z,19.30
2022-08-23T04:17:51.113Z,19.11
2022-08-23T04:20:21.513Z,19.02
2022-08-23T04:22:55.599Z,19.16
2022-08-23T04:25:33.571Z,19.23
2022-08-23T04:28:03.679Z,19.34
2022-08-23T04:30:32.742Z,19.49
2022-08-23T04:33:01.452Z,19.45
2022-08-23T04:35:29.911Z,19.41
2022-08-23T04:37:57.296Z,19.27
2022-08-23T04:40:44.238Z,19.43
2022-08-23T04:43:12.936Z,19.45
2022-08-23T04:45:40.556Z,19.54
2022-08-23T04:48:13.837Z,19.77
2022-08-23T04:50:45.381Z,19.66
2022-08-23T04:53:16.467Z,19.67
2022-08-23T04:56:09.151Z,19.63
2022-08-23T04:58:41.484Z,19.51
2022-08-23T05:01:10.745Z,19.56
2022-08-23T05:03:38.427Z,19.61
2022-08-23T05:08:58.445Z,19.63
2022-08-23T05:11:25.725Z,19.73
2022-08-23T05:13:52.974Z,19.64
2022-08-23T05:16:22.162Z,19.78
2022-08-23T05:25:24.595Z,19.73
2022-08-23T05:27:56.590Z,19.68
2022-08-23T05:30:23.751Z,19.54
2022-08-23T05:32:50.944Z,19.63
2022-08-23T05:35:18.151Z,19.88
2022-08-23T05:37:46.471Z,19.88
2022-08-23T05:40:14.503Z,19.97
2022-08-23T05:42:55.136Z,19.92
2022-08-23T05:45:22.287Z,19.98
2022-08-23T05:47:50.107Z,20.21
2022-08-23T05:50:49.505Z,20.45
2022-08-23T05:53:16.818Z,20.62
2022-08-23T05:55:46.164Z,20.52
2022-08-23T05:58:18.068Z,20.57
2022-08-23T06:00:46.025Z,20.46
2022-08-23T06:03:13.601Z,20.46
2022-08-23T06:05:41.867Z,20.32
2022-08-23T06:08:09.749Z,20.25
2022-08-23T06:10:41.723Z,20.60
2022-08-23T06:13:40.112Z,20.50
2022-08-23T06:16:15.013Z,20.84
2022-08-23T06:18:44.517Z,21.02
2022-08-23T06:21:38.620Z,21.15
2022-08-23T06:24:07.294Z,21.07
2022-08-23T06:26:43.041Z,21.11
2022-08-23T06:29:13.708Z,21.00
2022-08-23T06:31:47.252Z,21.04
2022-08-23T06:34:33.644Z,21.50
2022-08-23T06:37:14.977Z,21.39
2022-08-23T06:40:08.391Z,21.20
2022-08-23T06:42:51.093Z,21.42
2022-08-23T06:45:33.899Z,21.24
2022-08-23T06:48:03.571Z,21.25
2022-08-23T06:50:32.697Z,21.21
2022-08-23T06:53:18.599Z,21.43
2022-08-23T06:56:16.637Z,21.52
2022-08-23T06:58:55.454Z,21.66
2022-08-23T07:01:46.820Z,21.72
2022-08-23T07:04:27.571Z,21.56
2022-08-23T07:07:15.025Z,21.63
2022-08-23T07:09:43.949Z,21.96
2022-08-23T07:12:11.811Z,21.98
2022-08-23T07:14:42.619Z,21.76
2022-08-23T07:17:11.215Z,22.21
2022-08-23T07:19:38.754Z,21.97
2022-08-23T07:22:06.729Z,22.04
2022-08-23T07:24:34.177Z,21.87
2022-08-23T07:27:08.646Z,21.87
2022-08-23T07:29:43.041Z,21.76
2022-08-23T07:32:10.506Z,21.85
2022-08-23T07:35:41.551Z,22.41
